createdAt,value
2023-05-24T00:03:11.534Z,53.91
2023-05-24T00:08:16.977Z,54.69
2023-05-24T00:13:22.464Z,54.60
2023-05-24T00:18:27.966Z,56.96
2023-05-24T00:23:33.590Z,58.15
2023-05-24T00:28:38.970Z,57.72
2023-05-24T00:33:44.459Z,58.28
2023-05-24T00:38:50.477Z,59.28
2023-05-24T00:43:55.824Z,60.37
2023-05-24T00:49:01.828Z,58.93
2023-05-24T00:54:09.382Z,59.14
2023-05-24T00:59:15.340Z,57.86
2023-05-24T01:04:20.844Z,59.44
2023-05-24T01:09:34.164Z,60.28
2023-05-24T01:14:48.763Z,61.52
2023-05-24T01:20:02.395Z,62.36
2023-05-24T01:25:14.252Z,63.55
2023-05-24T01:30:20.728Z,64.48
2023-05-24T01:35:30.329Z,64.83
2023-05-24T01:40:37.378Z,65.40
2023-05-24T01:45:54.111Z,64.98
2023-05-24T01:51:01.436Z,66.10
2023-05-24T01:56:08.988Z,67.88
2023-05-24T02:01:14.832Z,68.88
2023-05-24T02:06:20.448Z,67.51
2023-05-24T02:11:26.126Z,67.60
2023-05-24T02:16:31.679Z,68.46
2023-05-24T02:21:37.350Z,69.68
2023-05-24T02:26:42.808Z,70.25
2023-05-24T02:31:52.085Z,69.56
2023-05-24T02:36:57.748Z,67.41
2023-05-24T02:42:05.920Z,69.05
2023-05-24T02:47:11.349Z,70.35
2023-05-24T02:52:21.602Z,71.90
2023-05-24T02:57:28.795Z,72.41
2023-05-24T03:02:38.479Z,72.05
2023-05-24T03:07:44.955Z,70.65
2023-05-24T03:12:50.797Z,67.84
2023-05-24T03:17:57.183Z,66.94
2023-05-24T03:23:02.824Z,65.14
2023-05-24T03:28:08.606Z,65.26
2023-05-24T03:33:14.035Z,64.87
2023-05-24T03:38:20.358Z,63.77
2023-05-24T03:43:25.985Z,63.38
2023-05-24T03:48:35.312Z,62.24
2023-05-24T03:53:40.644Z,62.00
2023-05-24T03:58:46.202Z,61.46
2023-05-24T04:03:52.591Z,61.36
2023-05-24T04:09:01.124Z,61.38
2023-05-24T04:14:06.959Z,61.00
2023-05-24T04:19:12.602Z,60.39
2023-05-24T04:24:17.994Z,59.88
2023-05-24T04:29:26.647Z,59.22
2023-05-24T04:34:35.956Z,59.00
2023-05-24T04:39:41.774Z,58.43
2023-05-24T04:44:47.444Z,58.27
2023-05-24T04:49:53.520Z,60.36
2023-05-24T04:54:59.058Z,58.98
2023-05-24T05:00:05.588Z,57.71
2023-05-24T05:05:12.679Z,57.50
2023-05-24T05:10:18.260Z,56.16
2023-05-24T05:15:24.918Z,56.49
2023-05-24T05:20:30.378Z,56.55
2023-05-24T05:25:36.030Z,55.25
2023-05-24T05:30:41.766Z,54.54
2023-05-24T05:35:47.557Z,53.41
2023-05-24T05:40:53.036Z,53.04
2023-05-24T05:45:58.583Z,52.00
2023-05-24T05:51:05.499Z,49.59
2023-05-24T05:56:18.167Z,46.78
2023-05-24T06:01:23.866Z,46.21
2023-05-24T06:06:29.426Z,45.43
2023-05-24T06:11:34.820Z,45.08
2023-05-24T06:16:43.799Z,42.57
2023-05-24T06:21:50.730Z,41.39
2023-05-24T06:26:56.741Z,41.14
2023-05-24T06:32:02.416Z,40.92
2023-05-24T06:37:10.486Z,41.13
2023-05-24T06:42:16.053Z,39.71
2023-05-24T06:47:24.449Z,38.26
2023-05-24T06:52:29.985Z,35.09
2023-05-24T06:57:35.325Z,30.81
2023-05-24T07:02:42.029Z,28.53
2023-05-24T07:07:48.162Z,27.64
2023-05-24T07:12:53.507Z,26.11
2023-05-24T07:17:58.962Z,24.67
2023-05-24T07:23:07.017Z,21.64
2023-05-24T07:28:14.275Z,19.58
2023-05-24T07:33:20.059Z,19.07
2023-05-24T07:38:26.418Z,18.98
2023-05-24T07:43:31.988Z,18.80
2023-05-24T07:48:37.569Z,20.11
2023-05-24T07:53:43.326Z,20.02
2023-05-24T07:58:49.282Z,18.84
2023-05-24T08:05:24.152Z,19.21
2023-05-24T08:10:29.647Z,19.40
2023-05-24T08:15:35.240Z,19.72
2023-05-24T08:20:40.982Z,20.31
2023-05-24T08:25:46.990Z,20.11
2023-05-24T08:30:52.778Z,20.12
2023-05-24T08:35:58.269Z,20.40
2023-05-24T08:41:08.459Z,19.41
2023-05-24T08:46:15.465Z,18.92
2023-05-24T08:51:21.686Z,18.60
2023-05-24T08:56:28.804Z,18.22
2023-05-24T09:01:37.953Z,18.41
2023-05-24T09:06:44.650Z,19.25
2023-05-24T09:11:53.591Z,19.01
2023-05-24T09:16:59.851Z,19.42
2023-05-24T09:22:05.916Z,20.67
2023-05-24T09:27:11.582Z,20.55
2023-05-24T09:32:17.557Z,21.17
2023-05-24T09:37:30.971Z,21.07
2023-05-24T09:42:38.383Z,21.21
2023-05-24T09:47:48.269Z,22.17
2023-05-24T09:52:56.129Z,21.06
2023-05-24T09:58:08.394Z,20.91
2023-05-24T10:03:15.353Z,22.13
2023-05-24T10:08:22.346Z,22.25
2023-05-24T10:13:28.429Z,21.84
2023-05-24T10:18:34.486Z,22.76
2023-05-24T10:23:43.156Z,22.86
2023-05-24T10:28:53.113Z,23.29
2023-05-24T10:34:08.007Z,23.50
2023-05-24T10:39:29.874Z,22.91
2023-05-24T10:44:35.668Z,22.70
2023-05-24T10:49:51.446Z,22.83
2023-05-24T10:55:09.586Z,24.67
2023-05-24T11:05:54.797Z,27.87
2023-05-24T11:11:24.536Z,26.35
2023-05-24T11:16:37.881Z,27.39
2023-05-24T11:21:47.051Z,27.75
2023-05-24T11:26:54.002Z,27.69
2023-05-24T11:32:05.359Z,26.68
2023-05-24T11:37:14.450Z,25.39
2023-05-24T11:42:23.619Z,22.41
2023-05-24T11:47:29.216Z,22.50
2023-05-24T11:52:38.517Z,26.57
2023-05-24T11:57:52.706Z,28.55
2023-05-24T12:03:03.023Z,28.76
2023-05-24T12:08:12.482Z,28.50
2023-05-24T12:13:24.158Z,27.57
2023-05-24T12:18:30.244Z,28.59
2023-05-24T12:23:37.211Z,29.78
2023-05-24T12:28:44.100Z,30.77
2023-05-24T12:33:53.498Z,30.27
2023-05-24T12:39:00.461Z,29.72
2023-05-24T12:44:05.998Z,29.13
2023-05-24T12:49:12.328Z,30.71
2023-05-24T12:54:20.199Z,29.88
2023-05-24T12:59:26.234Z,30.47
2023-05-24T13:04:33.913Z,30.41
2023-05-24T13:09:39.698Z,30.60
2023-05-24T13:14:45.417Z,30.32
2023-05-24T13:19:51.249Z,30.30
2023-05-24T13:24:56.775Z,30.16
2023-05-24T13:30:02.554Z,30.74
2023-05-24T13:35:09.160Z,30.95
2023-05-24T13:40:15.345Z,30.15
2023-05-24T13:45:21.650Z,29.43
2023-05-24T13:50:27.163Z,29.55
2023-05-24T13:55:37.835Z,30.43
2023-05-24T14:00:44.091Z,30.99
2023-05-24T14:05:49.978Z,31.39
2023-05-24T14:10:55.645Z,31.90
2023-05-24T14:16:01.310Z,31.11
2023-05-24T14:21:06.926Z,31.20
2023-05-24T14:26:12.620Z,31.21
2023-05-24T14:31:18.407Z,32.25
2023-05-24T14:36:23.960Z,32.64
2023-05-24T14:41:29.634Z,33.50
2023-05-24T14:46:35.125Z,34.14
2023-05-24T14:51:40.930Z,34.62
2023-05-24T14:56:46.646Z,35.92
2023-05-24T15:01:52.539Z,38.79
2023-05-24T15:06:58.117Z,42.26
2023-05-24T15:12:05.182Z,43.58
2023-05-24T15:17:11.577Z,46.47
2023-05-24T15:22:17.209Z,50.54
2023-05-24T15:27:22.906Z,50.67
2023-05-24T15:32:28.251Z,52.10
2023-05-24T15:37:33.859Z,52.58
2023-05-24T15:42:39.612Z,50.01
2023-05-24T15:47:45.358Z,49.83
2023-05-24T15:52:50.961Z,52.32
2023-05-24T15:57:58.344Z,52.59
2023-05-24T16:03:04.161Z,54.94
2023-05-24T16:08:10.577Z,56.31
2023-05-24T16:13:16.807Z,55.51
2023-05-24T16:18:23.506Z,56.14
2023-05-24T16:23:29.520Z,57.01
2023-05-24T16:28:34.996Z,57.23
2023-05-24T16:33:41.313Z,56.74
2023-05-24T16:38:47.021Z,57.68
2023-05-24T16:43:52.737Z,58.64
2023-05-24T16:48:58.834Z,60.12
2023-05-24T16:54:05.150Z,61.53
2023-05-24T16:59:10.606Z,62.20
2023-05-24T17:04:16.441Z,62.64
2023-05-24T17:09:22.469Z,62.70
2023-05-24T17:14:28.239Z,63.07
2023-05-24T17:19:34.363Z,63.70
2023-05-24T17:24:39.992Z,64.01
2023-05-24T17:29:46.009Z,64.24
2023-05-24T17:34:52.823Z,64.70
2023-05-24T17:39:58.536Z,64.86
2023-05-24T17:45:05.312Z,65.61
2023-05-24T17:50:12.319Z,65.90
2023-05-24T17:55:18.402Z,66.13
2023-05-24T18:00:24.249Z,66.35
2023-05-24T18:05:29.994Z,66.80
2023-05-24T18:10:36.526Z,66.80
2023-05-24T18:15:42.566Z,67.40
2023-05-24T18:20:48.571Z,67.65
2023-05-24T18:26:01.409Z,68.07
2023-05-24T18:31:14.744Z,68.71
2023-05-24T18:36:21.077Z,69.29
2023-05-24T18:41:27.092Z,69.50
2023-05-24T18:46:33.843Z,69.69
2023-05-24T18:51:39.409Z,70.23
2023-05-24T18:56:45.673Z,70.37
2023-05-24T19:01:53.121Z,71.04
2023-05-24T19:06:59.857Z,71.60
2023-05-24T19:12:06.402Z,72.13
2023-05-24T19:17:12.945Z,72.75
2023-05-24T19:22:19.386Z,73.04
2023-05-24T19:27:25.427Z,73.46
2023-05-24T19:32:32.188Z,74.27
2023-05-24T19:37:39.359Z,74.74
2023-05-24T19:42:45.382Z,75.04
2023-05-24T19:47:52.285Z,75.22
2023-05-24T19:52:58.360Z,75.27
2023-05-24T19:58:04.333Z,75.56
2023-05-24T20:03:10.254Z,75.44
2023-05-24T20:08:18.157Z,75.79
2023-05-24T20:13:25.016Z,75.99
2023-05-24T20:18:30.951Z,76.08
2023-05-24T20:23:37.207Z,76.17
2023-05-24T20:28:43.887Z,76.28
2023-05-24T20:33:51.642Z,76.24
2023-05-24T20:38:57.439Z,76.43
2023-05-24T20:44:03.127Z,76.68
2023-05-24T20:49:08.664Z,77.17
2023-05-24T20:54:14.121Z,77.41
2023-05-24T20:59:19.559Z,77.76
2023-05-24T21:04:25.050Z,78.19
2023-05-24T21:09:30.940Z,78.39
2023-05-24T21:14:36.876Z,78.96
2023-05-24T21:19:42.409Z,79.25
2023-05-24T21:24:48.167Z,79.40
2023-05-24T21:29:53.783Z,79.90
2023-05-24T21:34:59.226Z,80.03
2023-05-24T21:40:05.988Z,80.15
2023-05-24T21:45:12.881Z,80.35
2023-05-24T21:50:18.631Z,80.59
2023-05-24T21:55:24.495Z,80.69
2023-05-24T22:00:30.599Z,80.87
2023-05-24T22:05:36.133Z,81.14
2023-05-24T22:10:41.618Z,81.42
2023-05-24T22:15:47.247Z,81.48
2023-05-24T22:20:52.771Z,81.55
2023-05-24T22:25:58.338Z,82.17
2023-05-24T22:31:04.386Z,82.61
2023-05-24T22:36:12.401Z,83.03
2023-05-24T22:41:18.160Z,83.78
2023-05-24T22:46:24.211Z,84.43
2023-05-24T22:51:29.877Z,84.80
2023-05-24T22:56:36.161Z,85.36
2023-05-24T23:01:41.623Z,85.63
2023-05-24T23:06:47.459Z,86.07
2023-05-24T23:11:54.691Z,86.46
2023-05-24T23:17:02.713Z,86.80
2023-05-24T23:22:08.233Z,87.21
2023-05-24T23:27:13.899Z,87.39
2023-05-24T23:32:19.486Z,88.14
2023-05-24T23:37:25.007Z,88.63
2023-05-24T23:42:30.857Z,88.95
2023-05-24T23:47:36.376Z,89.35
2023-05-24T23:52:41.768Z,89.74
2023-05-24T23:57:47.642Z,90.15
